»·PEaware :: N6VG KCRQ-KEMT

N6VG :: KCRQ-KEMT

FLIGHT INFORMATION

Flight Status: Arrived
Operator: Privately registered:
United States
More flights under this callsign
Pilot: John C. (9438)
Aircraft: CESSNA 182 SKYLANE
(C182)
More flights by this aircraft type
Origin: KCRQ McClellan-Palomar
United States
Destination: KEMT El Monte
United States
More flights between these airports :: More routes between these airports
Route: +
File this flight plan on PilotEdge
Remarks: Testing
Altitude:
(Current/Filed)
4,500ft
Speed:
(Current/Filed)
140kts
Departed: 27-Oct-19 12:01 PM
Arrived: 27-Oct-19 01:23 PM
Distance/Time
Traveled:
66nm/1:22
Distance/Time
To Go:
Arrived

Flight Plot

Page will automatically refresh every two minutes.

Flight plan parsing failed; only flown route is shown


Map Options




Map Legend


Flown Route
Filed Route
Departure Airport
Arrival Airport
Navaid (VOR, NDB)
Fix

Horizontal Profiles

Position Reports

Time Latitude Longitude Heading Altitude Ground
Speed
27-Oct-19 11:38 33.127350 -117.275835 258 337ft 0kts
27-Oct-19 11:39 33.127350 -117.275835 258 337ft 0kts
27-Oct-19 11:40 33.127350 -117.275835 258 337ft 0kts
27-Oct-19 11:41 33.127350 -117.275835 258 337ft 0kts
27-Oct-19 11:42 33.127350 -117.275835 258 337ft 0kts
27-Oct-19 11:43 33.127350 -117.275835 258 337ft 0kts
27-Oct-19 11:44 33.127350 -117.275835 258 337ft 0kts
27-Oct-19 11:45 33.127350 -117.275835 258 337ft 0kts
27-Oct-19 11:46 33.127350 -117.275835 258 337ft 0kts
27-Oct-19 11:47 33.127350 -117.275835 258 337ft 0kts
27-Oct-19 11:48 33.127350 -117.275835 258 337ft 0kts
27-Oct-19 11:49 33.127350 -117.275835 258 337ft 0kts
27-Oct-19 11:50 33.127350 -117.275835 258 337ft 0kts
27-Oct-19 11:51 33.127350 -117.275835 258 337ft 0kts
27-Oct-19 11:52 33.127350 -117.275835 258 337ft 0kts
27-Oct-19 11:53 33.127350 -117.275835 258 337ft 0kts
27-Oct-19 11:54 33.127350 -117.275835 258 337ft 0kts
27-Oct-19 11:55 33.127350 -117.275835 258 337ft 0kts
27-Oct-19 11:56 33.127350 -117.275835 258 337ft 0kts
27-Oct-19 11:57 33.128216 -117.275248 76 337ft 14kts
27-Oct-19 11:58 33.128664 -117.272747 51 337ft 0kts
27-Oct-19 11:59 33.129140 -117.272481 340 337ft 11kts
27-Oct-19 12:00 33.127503 -117.288587 254 597ft 86kts
27-Oct-19 12:23 33.126425 -117.276666 47 337ft 0kts
27-Oct-19 12:24 33.126425 -117.276666 47 337ft 0kts
27-Oct-19 12:24 33.126425 -117.276666 47 337ft 0kts
27-Oct-19 12:25 33.126425 -117.276666 47 337ft 0kts
27-Oct-19 12:26 33.126425 -117.276666 47 337ft 0kts
27-Oct-19 12:28 33.126425 -117.276666 47 337ft 0kts
27-Oct-19 12:28 33.126425 -117.276666 47 337ft 0kts
27-Oct-19 12:36 33.127350 -117.275835 258 337ft 0kts
27-Oct-19 12:37 33.127350 -117.275835 258 337ft 0kts
27-Oct-19 12:38 33.127350 -117.275835 258 337ft 0kts
27-Oct-19 12:39 33.127350 -117.275835 258 337ft 0kts
27-Oct-19 12:40 33.127350 -117.275835 258 337ft 0kts
27-Oct-19 12:41 33.127350 -117.275835 258 337ft 0kts
27-Oct-19 12:42 33.127350 -117.275835 258 337ft 0kts
27-Oct-19 12:43 33.127350 -117.275835 258 337ft 0kts
27-Oct-19 12:44 33.127343 -117.275919 269 337ft 2kts
27-Oct-19 12:45 33.128303 -117.274806 79 337ft 6kts
27-Oct-19 12:46 33.128510 -117.273369 89 337ft 4kts
27-Oct-19 12:47 33.128677 -117.272746 47 337ft 0kts
27-Oct-19 12:48 33.129040 -117.272451 11 337ft 10kts
27-Oct-19 12:49 33.127734 -117.286847 252 810ft 60kts
27-Oct-19 12:50 33.124905 -117.307794 250 1675ft 85kts
27-Oct-19 12:51 33.118130 -117.340248 254 2308ft 118kts
27-Oct-19 12:52 33.111240 -117.383572 258 2636ft 147kts
27-Oct-19 12:53 33.129391 -117.428759 312 2622ft 162kts
27-Oct-19 12:54 33.159784 -117.466580 311 2622ft 154kts
27-Oct-19 12:55 33.189803 -117.503474 312 2624ft 152kts
27-Oct-19 12:56 33.219699 -117.540191 312 2622ft 154kts
27-Oct-19 12:57 33.249771 -117.577191 312 2624ft 154kts
27-Oct-19 12:58 33.279790 -117.614400 312 2640ft 154kts
27-Oct-19 12:59 33.309792 -117.651815 311 2640ft 155kts
27-Oct-19 13:00 33.342581 -117.685189 330 2642ft 157kts
27-Oct-19 13:01 33.382000 -117.707215 347 2642ft 157kts
27-Oct-19 13:02 33.425163 -117.713948 1 2641ft 156kts
27-Oct-19 13:03 33.468744 -117.711850 12 2642ft 156kts
27-Oct-19 13:04 33.511651 -117.702292 11 2641ft 156kts
27-Oct-19 13:05 33.554564 -117.692783 11 2641ft 157kts
27-Oct-19 13:06 33.597519 -117.683333 11 2641ft 156kts
27-Oct-19 13:07 33.640814 -117.677141 2 2641ft 157kts
27-Oct-19 13:08 33.684751 -117.676663 1 2641ft 158kts
27-Oct-19 13:09 33.728874 -117.675714 1 2642ft 159kts
27-Oct-19 13:10 33.771919 -117.683176 347 2641ft 157kts
27-Oct-19 13:11 33.813846 -117.697992 341 2642ft 156kts
27-Oct-19 13:12 33.855228 -117.712878 339 2642ft 155kts
27-Oct-19 13:13 33.895571 -117.732813 332 2660ft 157kts
27-Oct-19 13:14 33.930733 -117.762669 313 2663ft 153kts
27-Oct-19 13:15 33.960451 -117.797895 307 2660ft 148kts
27-Oct-19 13:16 33.979106 -117.842230 292 2565ft 158kts
27-Oct-19 13:17 33.997442 -117.890523 292 2534ft 157kts
27-Oct-19 13:18 34.015835 -117.940068 286 1780ft 166kts
27-Oct-19 13:19 34.029421 -117.986592 282 1107ft 126kts
27-Oct-19 13:20 34.033209 -118.022628 248 727ft 92kts
27-Oct-19 13:21 34.020071 -118.045617 217 365ft 69kts
27-Oct-19 13:22 34.013507 -118.052152 43 223ft 4kts
27-Oct-19 13:23 34.013386 -118.050990 228 223ft 2kts
27-Oct-19 13:24 34.013418 -118.051165 307 223ft 0kts
27-Oct-19 13:25 34.013418 -118.051165 307 223ft 0kts
27-Oct-19 13:26 34.013418 -118.051165 307 223ft 0kts

Navigation Log

Ident Type
Flight plan parsing failed, navigation log unavailable